Sipu Muin — CHCGA — position and weather

sailwx.info

Track history (hours):
 
Tides and Currents Weather Stations Pressure Air Temp Water Temp Dewpoint Dewpoint Depression Visibility Wind Speed Wind Dir Waves Ship Positions

Sipu Muin

Last reported at 2014-Jun-20 14:33 UTC. Time now 2014-Jul-26 17:16 UTC.
Position N 46°16' W 072°46'.
Warning: this ship's position is 36 days out of date.

Type: High speed craft. MMSI: 316001988.

Date/timePositionNaut miles runAvg speedWind from/ knotsBaromVisibWave heightAir tempDewpointWater temp
2014-Jun-20 14:33N 46°16' W 072°46'3635.5
2014-Jun-20 13:33N 45°49' W 073°21'3130.9
2014-Jun-20 12:33N 45°24' W 073°46'1 0.0
2014-Jun-19 20:33N 45°25' W 073°46'9 6.9
2014-Jun-19 19:19N 45°19' W 073°55'912.2
2014-Jun-19 18:34N 45°26' W 073°46'9 8.7
2014-Jun-19 17:34N 45°20' W 073°55'3 1.5
2014-Jun-19 15:34N 45°22' W 073°52'5 4.9
2014-Jun-19 14:33N 45°25' W 073°46'8 0.5
2014-Jun-18 20:12N 45°19' W 073°55'4 6.7
2014-Jun-18 19:33N 45°22' W 073°51'6 5.9
2014-Jun-18 18:34N 45°26' W 073°45'10 4.4
2014-Jun-18 16:14N 45°19' W 073°55'913.7
2014-Jun-18 15:34N 45°25' W 073°45'1 0.7
2014-Jun-18 14:33N 45°25' W 073°44'10 6.5
2014-Jun-18 13:05N 45°19' W 073°55'711.6
2014-Jun-18 12:31N 45°25' W 073°59'0 0.0
2014-Jun-18 11:33N 45°25' W 073°59'3 0.2
2014-Jun-17 18:33N 45°28' W 073°59'4 4.3
2014-Jun-17 17:34N 45°31' W 073°54'6 2.7
2014-Jun-17 15:12N 45°25' W 073°59'4 6.8
2014-Jun-17 14:33N 45°27' W 074°04'6 5.9
2014-Jun-17 13:34N 45°30' W 074°12'1010.3
2014-Jun-17 12:33N 45°25' W 073°59'0 0.0
2014-Jun-17 11:33N 45°25' W 073°59'0 0.0
2014-Jun-16 20:26N 45°25' W 073°59'4 2.0
2014-Jun-16 18:33N 45°27' W 074°03'4 3.7
2014-Jun-16 17:33N 45°25' W 073°59'  
2014-Jun-13 15:33N 45°19' W 073°55'10 9.8
2014-Jun-13 14:34N 45°25' W 073°44'1 1.0
2014-Jun-13 13:34N 45°25' W 073°43'8 0.4
2014-Jun-12 20:31N 45°21' W 073°52'1010.0
2014-Jun-12 19:34N 45°31' W 073°51'1 0.6
2014-Jun-12 18:33N 45°31' W 073°50'8 8.4
2014-Jun-12 17:33N 45°25' W 073°59'0 0.0
2014-Jun-12 16:32N 45°25' W 073°59'8 8.6
2014-Jun-12 15:33N 45°31' W 073°50'0 0.3
2014-Jun-12 14:33N 45°31' W 073°49'1 1.1
2014-Jun-12 13:33N 45°31' W 073°51'8 7.7
2014-Jun-12 12:33N 45°25' W 073°59'0 0.0
2014-Jun-12 01:33N 45°25' W 073°59'0 0.0
2014-Jun-12 00:33N 45°25' W 073°59'0 0.0
2014-Jun-11 21:09N 45°25' W 073°59'0 0.0
2014-Jun-11 20:33N 45°25' W 073°59'0 0.0
2014-Jun-11 19:33N 45°25' W 073°59'7 7.3
2014-Jun-11 18:33N 45°31' W 073°53'7 7.1
2014-Jun-11 17:33N 45°25' W 073°59'7 2.8
2014-Jun-11 15:14N 45°19' W 073°55'1116.3
2014-Jun-11 14:33N 45°30' W 073°56'3 3.1
2014-Jun-11 13:33N 45°31' W 073°51'12 6.0
2014-Jun-11 11:33N 45°19' W 073°55'0 0.0
2014-Jun-11 10:29N 45°19' W 073°55'0 0.0
2014-Jun-11 09:30N 45°19' W 073°55'0 0.0
2014-Jun-11 08:31N 45°19' W 073°55'0 0.0
2014-Jun-11 06:13N 45°19' W 073°55'0 0.0
2014-Jun-11 05:33N 45°19' W 073°55'0 0.0
2014-Jun-10 20:24N 45°19' W 073°55'910.2
2014-Jun-10 19:33N 45°28' W 073°55'2 2.2
2014-Jun-10 18:33N 45°29' W 073°52'6 2.0
2014-Jun-10 15:30N 45°24' W 073°57'6 6.7
2014-Jun-10 14:34N 45°29' W 073°52'  
Track history (hours):
 
Tides and Currents Weather Stations Pressure Air Temp Water Temp Dewpoint Dewpoint Depression Visibility Wind Speed Wind Dir Waves Ship Positions

Sipu Muin

Last reported at 2014-Jun-20 14:33 UTC. Time now 2014-Jul-26 17:16 UTC.
Position N 46°16' W 072°46'.
Warning: this ship's position is 36 days out of date.

Type: High speed craft. MMSI: 316001988.

Date/timePositionNaut miles runAvg speedWind from/ knotsBaromVisibWave heightAir tempDewpointWater temp
2014-Jun-20 14:33N 46°16' W 072°46'3635.5
2014-Jun-20 13:33N 45°49' W 073°21'3130.9
2014-Jun-20 12:33N 45°24' W 073°46'1 0.0
2014-Jun-19 20:33N 45°25' W 073°46'9 6.9
2014-Jun-19 19:19N 45°19' W 073°55'912.2
2014-Jun-19 18:34N 45°26' W 073°46'9 8.7
2014-Jun-19 17:34N 45°20' W 073°55'3 1.5
2014-Jun-19 15:34N 45°22' W 073°52'5 4.9
2014-Jun-19 14:33N 45°25' W 073°46'8 0.5
2014-Jun-18 20:12N 45°19' W 073°55'4 6.7
2014-Jun-18 19:33N 45°22' W 073°51'6 5.9
2014-Jun-18 18:34N 45°26' W 073°45'10 4.4
2014-Jun-18 16:14N 45°19' W 073°55'913.7
2014-Jun-18 15:34N 45°25' W 073°45'1 0.7
2014-Jun-18 14:33N 45°25' W 073°44'10 6.5
2014-Jun-18 13:05N 45°19' W 073°55'711.6
2014-Jun-18 12:31N 45°25' W 073°59'0 0.0
2014-Jun-18 11:33N 45°25' W 073°59'3 0.2
2014-Jun-17 18:33N 45°28' W 073°59'4 4.3
2014-Jun-17 17:34N 45°31' W 073°54'6 2.7
2014-Jun-17 15:12N 45°25' W 073°59'4 6.8
2014-Jun-17 14:33N 45°27' W 074°04'6 5.9
2014-Jun-17 13:34N 45°30' W 074°12'1010.3
2014-Jun-17 12:33N 45°25' W 073°59'0 0.0
2014-Jun-17 11:33N 45°25' W 073°59'0 0.0
2014-Jun-16 20:26N 45°25' W 073°59'4 2.0
2014-Jun-16 18:33N 45°27' W 074°03'4 3.7
2014-Jun-16 17:33N 45°25' W 073°59'  
2014-Jun-13 15:33N 45°19' W 073°55'10 9.8
2014-Jun-13 14:34N 45°25' W 073°44'1 1.0
2014-Jun-13 13:34N 45°25' W 073°43'8 0.4
2014-Jun-12 20:31N 45°21' W 073°52'1010.0
2014-Jun-12 19:34N 45°31' W 073°51'1 0.6
2014-Jun-12 18:33N 45°31' W 073°50'8 8.4
2014-Jun-12 17:33N 45°25' W 073°59'0 0.0
2014-Jun-12 16:32N 45°25' W 073°59'8 8.6
2014-Jun-12 15:33N 45°31' W 073°50'0 0.3
2014-Jun-12 14:33N 45°31' W 073°49'1 1.1
2014-Jun-12 13:33N 45°31' W 073°51'8 7.7
2014-Jun-12 12:33N 45°25' W 073°59'0 0.0
2014-Jun-12 01:33N 45°25' W 073°59'0 0.0
2014-Jun-12 00:33N 45°25' W 073°59'0 0.0
2014-Jun-11 21:09N 45°25' W 073°59'0 0.0
2014-Jun-11 20:33N 45°25' W 073°59'0 0.0
2014-Jun-11 19:33N 45°25' W 073°59'7 7.3
2014-Jun-11 18:33N 45°31' W 073°53'7 7.1
2014-Jun-11 17:33N 45°25' W 073°59'7 2.8
2014-Jun-11 15:14N 45°19' W 073°55'1116.3
2014-Jun-11 14:33N 45°30' W 073°56'3 3.1
2014-Jun-11 13:33N 45°31' W 073°51'12 6.0
2014-Jun-11 11:33N 45°19' W 073°55'0 0.0
2014-Jun-11 10:29N 45°19' W 073°55'0 0.0
2014-Jun-11 09:30N 45°19' W 073°55'0 0.0
2014-Jun-11 08:31N 45°19' W 073°55'0 0.0
2014-Jun-11 06:13N 45°19' W 073°55'0 0.0
2014-Jun-11 05:33N 45°19' W 073°55'0 0.0
2014-Jun-10 20:24N 45°19' W 073°55'910.2
2014-Jun-10 19:33N 45°28' W 073°55'2 2.2
2014-Jun-10 18:33N 45°29' W 073°52'6 2.0
2014-Jun-10 15:30N 45°24' W 073°57'6 6.7
2014-Jun-10 14:34N 45°29' W 073°52'  

Dump ship's entire track history